Adco, Washington
Current Conditions -  °F | °C
As of 11:53 PM on Wednesday 26 Nov 2014 (Local Time) from KEPH Reporting Station
Moderate Fog Moderate Fog  
Wind Chill: 32°   Ceiling: 200
Heat Index: 36°   Visibility: 0.25mi
Dew Point: 36°   Wind: 5mph
Humidity: 100%   Direction: 190°S
Pressure: 29.94"   Gusts: NA
Location:  47.4314°N, 119.485°W
Report Text: KEPH 270753Z AUTO 19004KT 1/4SM FG VV002 02/02 A2994 RMK AO2 SLP148 T00220022 400390022
Loading
Personal Weather Stations






























Interactive Weather Map New forecast layout! Learn more

10-Day Weather Forecast

Advertisements
Track Severe Weather on mobile